sensor_id;sensor_type;location;lat;lon;timestamp;P1;durP1;ratioP1;P2;durP2;ratioP2
6519;SDS011;3293;51.690;5.982;2023-02-28T00:00:37;15.53;;;11.40;;
6519;SDS011;3293;51.690;5.982;2023-02-28T00:05:38;15.43;;;11.70;;
6519;SDS011;3293;51.690;5.982;2023-02-28T00:10:38;15.13;;;11.87;;
6519;SDS011;3293;51.690;5.982;2023-02-28T00:15:38;13.90;;;11.30;;
6519;SDS011;3293;51.690;5.982;2023-02-28T00:20:38;16.23;;;11.60;;
6519;SDS011;3293;51.690;5.982;2023-02-28T00:25:38;18.27;;;10.73;;
6519;SDS011;3293;51.690;5.982;2023-02-28T00:30:38;15.00;;;11.53;;
6519;SDS011;3293;51.690;5.982;2023-02-28T00:35:38;13.00;;;10.60;;
6519;SDS011;3293;51.690;5.982;2023-02-28T00:40:39;13.97;;;11.47;;
6519;SDS011;3293;51.690;5.982;2023-02-28T00:45:39;15.60;;;11.53;;
6519;SDS011;3293;51.690;5.982;2023-02-28T00:50:39;16.67;;;11.53;;
6519;SDS011;3293;51.690;5.982;2023-02-28T00:55:38;15.17;;;11.07;;
6519;SDS011;3293;51.690;5.982;2023-02-28T01:00:39;11.50;;;10.33;;
6519;SDS011;3293;51.690;5.982;2023-02-28T01:05:39;14.53;;;10.73;;
6519;SDS011;3293;51.690;5.982;2023-02-28T01:10:40;13.97;;;10.40;;
6519;SDS011;3293;51.690;5.982;2023-02-28T01:15:42;12.37;;;9.87;;
6519;SDS011;3293;51.690;5.982;2023-02-28T01:20:45;14.47;;;10.00;;
6519;SDS011;3293;51.690;5.982;2023-02-28T01:25:45;10.80;;;9.53;;
6519;SDS011;3293;51.690;5.982;2023-02-28T01:30:49;12.10;;;9.77;;
6519;SDS011;3293;51.690;5.982;2023-02-28T01:35:50;11.63;;;9.27;;
6519;SDS011;3293;51.690;5.982;2023-02-28T01:41:00;13.00;;;8.97;;
6519;SDS011;3293;51.690;5.982;2023-02-28T01:46:01;12.17;;;8.50;;
6519;SDS011;3293;51.690;5.982;2023-02-28T01:51:02;12.13;;;8.83;;
6519;SDS011;3293;51.690;5.982;2023-02-28T01:56:08;11.70;;;8.83;;
6519;SDS011;3293;51.690;5.982;2023-02-28T02:01:11;9.97;;;8.97;;
6519;SDS011;3293;51.690;5.982;2023-02-28T02:06:20;11.73;;;8.47;;
6519;SDS011;3293;51.690;5.982;2023-02-28T02:11:29;14.23;;;9.17;;
6519;SDS011;3293;51.690;5.982;2023-02-28T02:16:46;10.60;;;8.23;;
6519;SDS011;3293;51.690;5.982;2023-02-28T02:43:17;12.60;;;8.90;;
6519;SDS011;3293;51.690;5.982;2023-02-28T02:48:21;10.63;;;7.53;;
6519;SDS011;3293;51.690;5.982;2023-02-28T02:53:36;15.00;;;7.80;;
6519;SDS011;3293;51.690;5.982;2023-02-28T02:58:40;10.23;;;8.33;;
6519;SDS011;3293;51.690;5.982;2023-02-28T03:03:42;11.30;;;8.23;;
6519;SDS011;3293;51.690;5.982;2023-02-28T03:08:44;10.73;;;7.83;;
6519;SDS011;3293;51.690;5.982;2023-02-28T03:24:07;11.10;;;7.80;;
6519;SDS011;3293;51.690;5.982;2023-02-28T03:29:22;8.27;;;7.07;;
6519;SDS011;3293;51.690;5.982;2023-02-28T03:34:37;9.83;;;7.20;;
6519;SDS011;3293;51.690;5.982;2023-02-28T03:39:42;7.83;;;6.70;;
6519;SDS011;3293;51.690;5.982;2023-02-28T03:44:47;9.27;;;7.23;;
6519;SDS011;3293;51.690;5.982;2023-02-28T03:50:00;7.60;;;6.60;;
6519;SDS011;3293;51.690;5.982;2023-02-28T03:55:08;6.47;;;5.67;;
6519;SDS011;3293;51.690;5.982;2023-02-28T04:00:16;9.30;;;6.37;;
6519;SDS011;3293;51.690;5.982;2023-02-28T04:05:20;8.57;;;5.90;;
6519;SDS011;3293;51.690;5.982;2023-02-28T04:10:21;11.17;;;5.90;;
6519;SDS011;3293;51.690;5.982;2023-02-28T04:15:21;7.30;;;5.93;;
6519;SDS011;3293;51.690;5.982;2023-02-28T04:20:24;9.23;;;6.13;;
6519;SDS011;3293;51.690;5.982;2023-02-28T04:25:24;9.10;;;6.23;;
6519;SDS011;3293;51.690;5.982;2023-02-28T04:30:24;7.60;;;6.20;;
6519;SDS011;3293;51.690;5.982;2023-02-28T04:35:23;6.83;;;6.13;;
6519;SDS011;3293;51.690;5.982;2023-02-28T04:40:23;8.57;;;5.40;;
6519;SDS011;3293;51.690;5.982;2023-02-28T04:45:23;8.23;;;5.80;;
6519;SDS011;3293;51.690;5.982;2023-02-28T04:50:23;7.40;;;5.87;;
6519;SDS011;3293;51.690;5.982;2023-02-28T04:55:23;7.10;;;5.03;;
6519;SDS011;3293;51.690;5.982;2023-02-28T05:00:23;7.10;;;5.63;;
6519;SDS011;3293;51.690;5.982;2023-02-28T05:05:24;7.63;;;5.83;;
6519;SDS011;3293;51.690;5.982;2023-02-28T05:10:25;6.60;;;5.90;;
6519;SDS011;3293;51.690;5.982;2023-02-28T05:15:25;9.37;;;6.67;;
6519;SDS011;3293;51.690;5.982;2023-02-28T05:20:25;7.80;;;6.93;;
6519;SDS011;3293;51.690;5.982;2023-02-28T05:25:24;12.80;;;7.10;;
6519;SDS011;3293;51.690;5.982;2023-02-28T05:30:24;10.20;;;6.90;;
6519;SDS011;3293;51.690;5.982;2023-02-28T05:35:24;6.97;;;6.27;;
6519;SDS011;3293;51.690;5.982;2023-02-28T05:40:25;7.00;;;6.30;;
6519;SDS011;3293;51.690;5.982;2023-02-28T05:45:25;7.90;;;6.80;;
6519;SDS011;3293;51.690;5.982;2023-02-28T05:50:25;7.10;;;6.40;;
6519;SDS011;3293;51.690;5.982;2023-02-28T05:55:25;7.03;;;6.33;;
6519;SDS011;3293;51.690;5.982;2023-02-28T06:00:25;8.20;;;6.97;;
6519;SDS011;3293;51.690;5.982;2023-02-28T06:05:25;7.20;;;6.00;;
6519;SDS011;3293;51.690;5.982;2023-02-28T06:10:25;11.67;;;6.53;;
6519;SDS011;3293;51.690;5.982;2023-02-28T06:15:25;8.47;;;6.77;;
6519;SDS011;3293;51.690;5.982;2023-02-28T06:20:25;10.77;;;6.50;;
6519;SDS011;3293;51.690;5.982;2023-02-28T06:25:28;10.00;;;6.13;;
6519;SDS011;3293;51.690;5.982;2023-02-28T06:30:28;9.20;;;6.07;;
6519;SDS011;3293;51.690;5.982;2023-02-28T06:35:29;6.80;;;6.17;;
6519;SDS011;3293;51.690;5.982;2023-02-28T06:40:29;7.50;;;5.90;;
6519;SDS011;3293;51.690;5.982;2023-02-28T06:45:33;14.33;;;8.20;;
6519;SDS011;3293;51.690;5.982;2023-02-28T06:50:33;8.77;;;6.30;;
6519;SDS011;3293;51.690;5.982;2023-02-28T06:55:33;7.17;;;6.00;;
6519;SDS011;3293;51.690;5.982;2023-02-28T07:00:33;10.40;;;6.13;;
6519;SDS011;3293;51.690;5.982;2023-02-28T07:05:36;5.97;;;5.37;;
6519;SDS011;3293;51.690;5.982;2023-02-28T07:10:37;9.00;;;5.63;;
6519;SDS011;3293;51.690;5.982;2023-02-28T07:15:38;6.17;;;5.27;;
6519;SDS011;3293;51.690;5.982;2023-02-28T07:20:38;10.60;;;5.93;;
6519;SDS011;3293;51.690;5.982;2023-02-28T07:25:38;7.83;;;5.30;;
6519;SDS011;3293;51.690;5.982;2023-02-28T07:30:38;8.20;;;5.80;;
6519;SDS011;3293;51.690;5.982;2023-02-28T07:35:39;5.43;;;4.53;;
6519;SDS011;3293;51.690;5.982;2023-02-28T07:40:39;6.40;;;5.00;;
6519;SDS011;3293;51.690;5.982;2023-02-28T07:45:39;5.10;;;4.60;;
6519;SDS011;3293;51.690;5.982;2023-02-28T07:50:40;5.13;;;4.63;;
6519;SDS011;3293;51.690;5.982;2023-02-28T07:55:39;7.83;;;4.93;;
6519;SDS011;3293;51.690;5.982;2023-02-28T08:00:40;5.27;;;4.43;;
6519;SDS011;3293;51.690;5.982;2023-02-28T08:05:40;5.90;;;3.70;;
6519;SDS011;3293;51.690;5.982;2023-02-28T08:10:40;5.67;;;4.07;;
6519;SDS011;3293;51.690;5.982;2023-02-28T08:15:40;5.30;;;3.80;;
6519;SDS011;3293;51.690;5.982;2023-02-28T08:20:42;3.80;;;3.40;;
6519;SDS011;3293;51.690;5.982;2023-02-28T08:25:42;4.03;;;3.70;;
6519;SDS011;3293;51.690;5.982;2023-02-28T08:30:42;5.53;;;3.40;;
6519;SDS011;3293;51.690;5.982;2023-02-28T08:35:42;3.40;;;3.10;;
6519;SDS011;3293;51.690;5.982;2023-02-28T08:40:42;3.37;;;3.07;;
6519;SDS011;3293;51.690;5.982;2023-02-28T08:45:42;3.80;;;2.83;;
6519;SDS011;3293;51.690;5.982;2023-02-28T08:50:42;4.23;;;2.90;;
6519;SDS011;3293;51.690;5.982;2023-02-28T08:55:42;3.20;;;2.90;;
6519;SDS011;3293;51.690;5.982;2023-02-28T09:00:42;3.63;;;3.30;;
6519;SDS011;3293;51.690;5.982;2023-02-28T09:05:41;4.70;;;3.27;;
6519;SDS011;3293;51.690;5.982;2023-02-28T09:10:55;4.17;;;3.10;;
6519;SDS011;3293;51.690;5.982;2023-02-28T09:15:57;4.20;;;3.00;;
6519;SDS011;3293;51.690;5.982;2023-02-28T09:20:58;5.00;;;3.43;;
6519;SDS011;3293;51.690;5.982;2023-02-28T09:25:58;3.40;;;3.10;;
6519;SDS011;3293;51.690;5.982;2023-02-28T09:30:58;3.47;;;3.17;;
6519;SDS011;3293;51.690;5.982;2023-02-28T09:36:00;3.60;;;3.30;;
6519;SDS011;3293;51.690;5.982;2023-02-28T09:41:04;3.00;;;2.80;;
6519;SDS011;3293;51.690;5.982;2023-02-28T09:56:40;3.03;;;2.83;;
6519;SDS011;3293;51.690;5.982;2023-02-28T10:12:24;3.27;;;2.90;;
6519;SDS011;3293;51.690;5.982;2023-02-28T10:17:28;3.17;;;2.87;;
6519;SDS011;3293;51.690;5.982;2023-02-28T10:22:38;3.30;;;3.00;;
6519;SDS011;3293;51.690;5.982;2023-02-28T10:27:53;3.63;;;3.13;;
6519;SDS011;3293;51.690;5.982;2023-02-28T10:32:58;2.97;;;2.77;;
6519;SDS011;3293;51.690;5.982;2023-02-28T10:37:59;3.10;;;2.80;;
6519;SDS011;3293;51.690;5.982;2023-02-28T10:58:24;3.27;;;2.90;;
6519;SDS011;3293;51.690;5.982;2023-02-28T11:03:34;2.97;;;2.77;;
6519;SDS011;3293;51.690;5.982;2023-02-28T11:08:34;3.93;;;2.57;;
6519;SDS011;3293;51.690;5.982;2023-02-28T11:13:45;3.27;;;2.50;;
6519;SDS011;3293;51.690;5.982;2023-02-28T11:23:49;3.13;;;2.90;;
6519;SDS011;3293;51.690;5.982;2023-02-28T11:28:51;2.80;;;2.60;;
6519;SDS011;3293;51.690;5.982;2023-02-28T11:34:30;3.30;;;3.00;;
6519;SDS011;3293;51.690;5.982;2023-02-28T11:39:29;3.40;;;3.13;;
6519;SDS011;3293;51.690;5.982;2023-02-28T12:05:58;3.57;;;3.07;;
6519;SDS011;3293;51.690;5.982;2023-02-28T12:11:06;2.97;;;2.60;;
6519;SDS011;3293;51.690;5.982;2023-02-28T12:26:50;4.10;;;2.60;;
6519;SDS011;3293;51.690;5.982;2023-02-28T12:31:53;3.17;;;2.90;;
6519;SDS011;3293;51.690;5.982;2023-02-28T12:36:55;4.27;;;2.80;;
6519;SDS011;3293;51.690;5.982;2023-02-28T12:42:22;3.20;;;2.90;;
6519;SDS011;3293;51.690;5.982;2023-02-28T12:47:23;3.70;;;2.87;;
6519;SDS011;3293;51.690;5.982;2023-02-28T12:52:25;4.50;;;2.73;;
6519;SDS011;3293;51.690;5.982;2023-02-28T13:13:13;3.17;;;2.80;;
6519;SDS011;3293;51.690;5.982;2023-02-28T13:19:07;4.37;;;3.10;;
6519;SDS011;3293;51.690;5.982;2023-02-28T13:29:28;4.20;;;3.80;;
6519;SDS011;3293;51.690;5.982;2023-02-28T13:34:34;3.60;;;3.30;;
6519;SDS011;3293;51.690;5.982;2023-02-28T13:50:14;3.53;;;3.00;;
6519;SDS011;3293;51.690;5.982;2023-02-28T14:06:46;3.43;;;3.13;;
6519;SDS011;3293;51.690;5.982;2023-02-28T14:11:51;5.13;;;3.30;;
6519;SDS011;3293;51.690;5.982;2023-02-28T14:16:52;3.60;;;3.20;;
6519;SDS011;3293;51.690;5.982;2023-02-28T14:32:26;3.53;;;3.23;;
6519;SDS011;3293;51.690;5.982;2023-02-28T14:37:53;3.53;;;3.30;;
6519;SDS011;3293;51.690;5.982;2023-02-28T14:42:55;3.43;;;3.13;;
6519;SDS011;3293;51.690;5.982;2023-02-28T14:47:57;4.47;;;3.30;;
6519;SDS011;3293;51.690;5.982;2023-02-28T14:52:59;3.63;;;3.30;;
6519;SDS011;3293;51.690;5.982;2023-02-28T14:58:00;4.57;;;3.57;;
6519;SDS011;3293;51.690;5.982;2023-02-28T15:03:17;4.70;;;3.20;;
6519;SDS011;3293;51.690;5.982;2023-02-28T15:08:37;4.17;;;3.50;;
6519;SDS011;3293;51.690;5.982;2023-02-28T15:13:44;5.60;;;3.40;;
6519;SDS011;3293;51.690;5.982;2023-02-28T15:18:59;4.37;;;3.63;;
6519;SDS011;3293;51.690;5.982;2023-02-28T15:24:37;3.87;;;3.27;;
6519;SDS011;3293;51.690;5.982;2023-02-28T15:29:44;4.23;;;3.43;;
6519;SDS011;3293;51.690;5.982;2023-02-28T15:34:48;3.30;;;3.00;;
6519;SDS011;3293;51.690;5.982;2023-02-28T15:39:48;3.93;;;3.63;;
6519;SDS011;3293;51.690;5.982;2023-02-28T15:44:48;5.33;;;3.97;;
6519;SDS011;3293;51.690;5.982;2023-02-28T15:49:52;4.17;;;3.27;;
6519;SDS011;3293;51.690;5.982;2023-02-28T15:54:58;4.00;;;3.60;;
6519;SDS011;3293;51.690;5.982;2023-02-28T16:00:00;4.27;;;3.87;;
6519;SDS011;3293;51.690;5.982;2023-02-28T16:10:10;3.83;;;3.40;;
6519;SDS011;3293;51.690;5.982;2023-02-28T16:20:26;4.37;;;3.33;;
6519;SDS011;3293;51.690;5.982;2023-02-28T16:25:49;4.20;;;3.90;;
6519;SDS011;3293;51.690;5.982;2023-02-28T16:30:50;4.53;;;3.43;;
6519;SDS011;3293;51.690;5.982;2023-02-28T16:35:51;5.47;;;4.50;;
6519;SDS011;3293;51.690;5.982;2023-02-28T16:40:51;6.73;;;3.70;;
6519;SDS011;3293;51.690;5.982;2023-02-28T16:45:55;4.17;;;3.87;;
6519;SDS011;3293;51.690;5.982;2023-02-28T16:50:57;4.53;;;3.73;;
6519;SDS011;3293;51.690;5.982;2023-02-28T16:55:57;4.83;;;3.43;;
6519;SDS011;3293;51.690;5.982;2023-02-28T17:00:57;4.27;;;3.87;;
6519;SDS011;3293;51.690;5.982;2023-02-28T17:05:57;3.90;;;3.57;;
6519;SDS011;3293;51.690;5.982;2023-02-28T17:10:57;3.93;;;3.20;;
6519;SDS011;3293;51.690;5.982;2023-02-28T17:15:58;4.70;;;3.67;;
6519;SDS011;3293;51.690;5.982;2023-02-28T17:20:58;4.23;;;3.37;;
6519;SDS011;3293;51.690;5.982;2023-02-28T17:25:59;3.30;;;3.10;;
6519;SDS011;3293;51.690;5.982;2023-02-28T17:30:59;3.53;;;3.23;;
6519;SDS011;3293;51.690;5.982;2023-02-28T17:35:59;4.83;;;3.60;;
6519;SDS011;3293;51.690;5.982;2023-02-28T17:40:59;5.10;;;3.70;;
6519;SDS011;3293;51.690;5.982;2023-02-28T17:45:59;4.57;;;3.67;;
6519;SDS011;3293;51.690;5.982;2023-02-28T17:50:59;6.93;;;4.07;;
6519;SDS011;3293;51.690;5.982;2023-02-28T17:55:58;21.60;;;12.27;;
6519;SDS011;3293;51.690;5.982;2023-02-28T18:00:58;6.03;;;5.50;;
6519;SDS011;3293;51.690;5.982;2023-02-28T18:05:58;7.83;;;6.93;;
6519;SDS011;3293;51.690;5.982;2023-02-28T18:10:59;8.43;;;6.63;;
6519;SDS011;3293;51.690;5.982;2023-02-28T18:15:59;6.67;;;4.90;;
6519;SDS011;3293;51.690;5.982;2023-02-28T18:20:59;13.50;;;9.13;;
6519;SDS011;3293;51.690;5.982;2023-02-28T18:25:59;11.00;;;9.17;;
6519;SDS011;3293;51.690;5.982;2023-02-28T18:31:06;7.07;;;6.03;;
6519;SDS011;3293;51.690;5.982;2023-02-28T18:36:07;6.70;;;4.70;;
6519;SDS011;3293;51.690;5.982;2023-02-28T18:41:07;5.33;;;4.50;;
6519;SDS011;3293;51.690;5.982;2023-02-28T18:46:09;6.03;;;4.57;;
6519;SDS011;3293;51.690;5.982;2023-02-28T18:51:11;6.90;;;5.27;;
6519;SDS011;3293;51.690;5.982;2023-02-28T18:56:14;6.70;;;6.00;;
6519;SDS011;3293;51.690;5.982;2023-02-28T19:01:17;10.13;;;7.70;;
6519;SDS011;3293;51.690;5.982;2023-02-28T19:06:30;7.93;;;7.20;;
6519;SDS011;3293;51.690;5.982;2023-02-28T19:11:31;7.97;;;6.53;;
6519;SDS011;3293;51.690;5.982;2023-02-28T19:16:32;7.90;;;6.27;;
6519;SDS011;3293;51.690;5.982;2023-02-28T19:21:32;7.90;;;6.77;;
6519;SDS011;3293;51.690;5.982;2023-02-28T19:26:34;9.30;;;7.00;;
6519;SDS011;3293;51.690;5.982;2023-02-28T19:31:35;8.87;;;7.00;;
6519;SDS011;3293;51.690;5.982;2023-02-28T19:36:35;9.93;;;7.23;;
6519;SDS011;3293;51.690;5.982;2023-02-28T19:41:35;10.93;;;7.70;;
6519;SDS011;3293;51.690;5.982;2023-02-28T19:46:35;23.57;;;13.10;;
6519;SDS011;3293;51.690;5.982;2023-02-28T19:51:35;26.33;;;14.83;;
6519;SDS011;3293;51.690;5.982;2023-02-28T19:56:36;28.13;;;17.00;;
6519;SDS011;3293;51.690;5.982;2023-02-28T20:01:36;20.37;;;14.80;;
6519;SDS011;3293;51.690;5.982;2023-02-28T20:06:36;18.00;;;13.40;;
6519;SDS011;3293;51.690;5.982;2023-02-28T20:11:36;19.53;;;16.23;;
6519;SDS011;3293;51.690;5.982;2023-02-28T20:16:37;35.47;;;20.73;;
6519;SDS011;3293;51.690;5.982;2023-02-28T20:21:38;30.63;;;19.77;;
6519;SDS011;3293;51.690;5.982;2023-02-28T20:26:39;49.90;;;26.63;;
6519;SDS011;3293;51.690;5.982;2023-02-28T20:31:39;41.87;;;22.97;;
6519;SDS011;3293;51.690;5.982;2023-02-28T20:36:39;31.77;;;19.00;;
6519;SDS011;3293;51.690;5.982;2023-02-28T20:41:39;31.70;;;17.63;;
6519;SDS011;3293;51.690;5.982;2023-02-28T20:46:39;19.03;;;13.07;;
6519;SDS011;3293;51.690;5.982;2023-02-28T20:51:41;17.80;;;11.20;;
6519;SDS011;3293;51.690;5.982;2023-02-28T20:56:41;12.43;;;10.00;;
6519;SDS011;3293;51.690;5.982;2023-02-28T21:01:41;11.90;;;10.63;;
6519;SDS011;3293;51.690;5.982;2023-02-28T21:06:41;14.40;;;10.33;;
6519;SDS011;3293;51.690;5.982;2023-02-28T21:11:42;11.00;;;9.83;;
6519;SDS011;3293;51.690;5.982;2023-02-28T21:16:42;12.23;;;10.80;;
6519;SDS011;3293;51.690;5.982;2023-02-28T21:21:43;16.43;;;10.30;;
6519;SDS011;3293;51.690;5.982;2023-02-28T21:26:45;12.87;;;10.30;;
6519;SDS011;3293;51.690;5.982;2023-02-28T21:31:48;14.30;;;11.10;;
6519;SDS011;3293;51.690;5.982;2023-02-28T21:36:50;13.47;;;9.97;;
6519;SDS011;3293;51.690;5.982;2023-02-28T21:41:50;12.00;;;9.93;;
6519;SDS011;3293;51.690;5.982;2023-02-28T21:46:51;10.47;;;9.20;;
6519;SDS011;3293;51.690;5.982;2023-02-28T21:51:55;10.80;;;8.83;;
6519;SDS011;3293;51.690;5.982;2023-02-28T21:56:55;9.20;;;8.17;;
6519;SDS011;3293;51.690;5.982;2023-02-28T22:01:55;8.53;;;7.70;;
6519;SDS011;3293;51.690;5.982;2023-02-28T22:06:55;10.60;;;8.23;;
6519;SDS011;3293;51.690;5.982;2023-02-28T22:11:56;11.33;;;8.47;;
6519;SDS011;3293;51.690;5.982;2023-02-28T22:16:57;23.47;;;15.83;;
6519;SDS011;3293;51.690;5.982;2023-02-28T22:21:56;12.83;;;10.27;;
6519;SDS011;3293;51.690;5.982;2023-02-28T22:26:57;10.40;;;7.87;;
6519;SDS011;3293;51.690;5.982;2023-02-28T22:31:56;10.93;;;7.83;;
6519;SDS011;3293;51.690;5.982;2023-02-28T22:36:57;10.30;;;8.00;;
6519;SDS011;3293;51.690;5.982;2023-02-28T22:41:57;9.90;;;8.03;;
6519;SDS011;3293;51.690;5.982;2023-02-28T22:46:57;8.87;;;7.97;;
6519;SDS011;3293;51.690;5.982;2023-02-28T22:51:57;9.30;;;7.50;;
6519;SDS011;3293;51.690;5.982;2023-02-28T22:56:57;12.27;;;9.67;;
6519;SDS011;3293;51.690;5.982;2023-02-28T23:01:57;13.93;;;10.67;;
6519;SDS011;3293;51.690;5.982;2023-02-28T23:06:57;12.30;;;10.00;;
6519;SDS011;3293;51.690;5.982;2023-02-28T23:11:57;8.90;;;7.90;;
6519;SDS011;3293;51.690;5.982;2023-02-28T23:16:57;9.40;;;7.57;;
6519;SDS011;3293;51.690;5.982;2023-02-28T23:21:58;20.80;;;13.90;;
6519;SDS011;3293;51.690;5.982;2023-02-28T23:27:00;16.13;;;11.97;;
6519;SDS011;3293;51.690;5.982;2023-02-28T23:32:03;10.73;;;8.83;;
6519;SDS011;3293;51.690;5.982;2023-02-28T23:37:04;11.37;;;8.10;;
6519;SDS011;3293;51.690;5.982;2023-02-28T23:42:03;13.97;;;8.73;;
6519;SDS011;3293;51.690;5.982;2023-02-28T23:47:03;10.17;;;8.63;;
6519;SDS011;3293;51.690;5.982;2023-02-28T23:52:05;10.63;;;8.90;;
6519;SDS011;3293;51.690;5.982;2023-02-28T23:57:05;8.87;;;7.97;;
